Soldiers Field, Massachusetts
Current Conditions -  °F | °C
As of 6:54 PM on Wednesday 22 Oct 2014 (Local Time) from KBOS Reporting Station
Light Rain Light Rain  
Wind Chill: 52°   Ceiling: 900
Heat Index: 52°   Visibility: 2mi
Dew Point: 51°   Wind: 33mph
Humidity: 97%   Direction: 40°NE
Pressure: 29.86"   Gusts: 47mph
Location:  42.3579°N, 71.1176°W
Report Text: KBOS 222254Z 04029G41KT 2SM -RA BR OVC009 11/11 A2986 RMK AO2 PK WND 03042/2158 SFC VIS 3 DZE52RAB52 SLP111 P0004 T01110106
Loading
Personal Weather Stations






























Interactive Weather Map
Tropical Storm Tracking
New forecast layout! Learn more

10-Day Weather Forecast

Advertisements
Track Severe Weather on mobile